sensor_id;sensor_type;location;lat;lon;timestamp;pressure;altitude;pressure_sealevel;temperature;humidity
48862;BME280;34681;49.188;-0.374;2022-07-06T00:01:21;102523.72;;;18.94;58.18
48862;BME280;34681;49.188;-0.374;2022-07-06T00:03:47;102516.25;;;18.95;58.10
48862;BME280;34681;49.188;-0.374;2022-07-06T00:06:13;102521.50;;;18.98;58.18
48862;BME280;34681;49.188;-0.374;2022-07-06T00:08:38;102527.34;;;18.95;58.18
48862;BME280;34681;49.188;-0.374;2022-07-06T00:11:04;102524.75;;;18.93;58.17
48862;BME280;34681;49.188;-0.374;2022-07-06T00:13:30;102534.50;;;18.97;58.12
48862;BME280;34681;49.188;-0.374;2022-07-06T00:15:55;102529.13;;;18.96;58.26
48862;BME280;34681;49.188;-0.374;2022-07-06T00:18:20;102522.63;;;18.87;58.39
48862;BME280;34681;49.188;-0.374;2022-07-06T00:20:46;102519.97;;;18.86;58.20
48862;BME280;34681;49.188;-0.374;2022-07-06T00:23:11;102523.25;;;18.81;58.31
48862;BME280;34681;49.188;-0.374;2022-07-06T00:25:37;102521.34;;;18.82;58.33
48862;BME280;34681;49.188;-0.374;2022-07-06T00:28:03;102535.22;;;18.82;58.18
48862;BME280;34681;49.188;-0.374;2022-07-06T00:30:28;102545.19;;;18.74;58.44
48862;BME280;34681;49.188;-0.374;2022-07-06T00:32:54;102535.28;;;18.72;58.44
48862;BME280;34681;49.188;-0.374;2022-07-06T00:35:19;102535.53;;;18.78;58.23
48862;BME280;34681;49.188;-0.374;2022-07-06T00:37:44;102530.00;;;18.78;58.24
48862;BME280;34681;49.188;-0.374;2022-07-06T00:40:10;102530.19;;;18.67;58.38
48862;BME280;34681;49.188;-0.374;2022-07-06T00:42:44;102529.75;;;18.72;58.22
48862;BME280;34681;49.188;-0.374;2022-07-06T00:45:10;102519.97;;;18.68;58.16
48862;BME280;34681;49.188;-0.374;2022-07-06T00:47:37;102520.84;;;18.68;58.35
48862;BME280;34681;49.188;-0.374;2022-07-06T00:50:07;102521.25;;;18.73;58.38
48862;BME280;34681;49.188;-0.374;2022-07-06T00:52:42;102518.41;;;18.65;58.65
48862;BME280;34681;49.188;-0.374;2022-07-06T00:55:08;102508.59;;;18.71;58.43
48862;BME280;34681;49.188;-0.374;2022-07-06T00:57:34;102513.09;;;18.72;58.36
48862;BME280;34681;49.188;-0.374;2022-07-06T01:00:02;102515.00;;;18.71;58.36
48862;BME280;34681;49.188;-0.374;2022-07-06T01:02:33;102512.53;;;18.68;58.64
48862;BME280;34681;49.188;-0.374;2022-07-06T01:04:59;102519.56;;;18.63;58.68
48862;BME280;34681;49.188;-0.374;2022-07-06T01:07:25;102515.97;;;18.52;58.72
48862;BME280;34681;49.188;-0.374;2022-07-06T01:09:51;102516.22;;;18.59;58.45
48862;BME280;34681;49.188;-0.374;2022-07-06T01:12:17;102515.03;;;18.62;58.30
48862;BME280;34681;49.188;-0.374;2022-07-06T01:14:43;102516.06;;;18.61;58.51
48862;BME280;34681;49.188;-0.374;2022-07-06T01:17:09;102520.19;;;18.57;58.57
48862;BME280;34681;49.188;-0.374;2022-07-06T01:19:34;102517.00;;;18.51;58.75
48862;BME280;34681;49.188;-0.374;2022-07-06T01:22:00;102521.03;;;18.39;59.06
48862;BME280;34681;49.188;-0.374;2022-07-06T01:24:26;102513.59;;;18.40;58.87
48862;BME280;34681;49.188;-0.374;2022-07-06T01:26:51;102518.34;;;18.47;59.03
48862;BME280;34681;49.188;-0.374;2022-07-06T01:29:17;102520.97;;;18.49;58.72
48862;BME280;34681;49.188;-0.374;2022-07-06T01:31:48;102516.34;;;18.40;59.14
48862;BME280;34681;49.188;-0.374;2022-07-06T01:34:14;102519.03;;;18.32;59.31
48862;BME280;34681;49.188;-0.374;2022-07-06T01:36:41;102510.56;;;18.33;59.16
48862;BME280;34681;49.188;-0.374;2022-07-06T01:39:08;102510.56;;;18.33;59.03
48862;BME280;34681;49.188;-0.374;2022-07-06T01:41:34;102514.53;;;18.31;59.12
48862;BME280;34681;49.188;-0.374;2022-07-06T01:43:59;102511.69;;;18.40;59.05
48862;BME280;34681;49.188;-0.374;2022-07-06T01:46:24;102519.75;;;18.34;59.01
48862;BME280;34681;49.188;-0.374;2022-07-06T01:48:50;102526.59;;;18.02;60.16
48862;BME280;34681;49.188;-0.374;2022-07-06T01:51:15;102523.09;;;17.53;62.21
48862;BME280;34681;49.188;-0.374;2022-07-06T01:53:41;102517.97;;;17.78;61.48
48862;BME280;34681;49.188;-0.374;2022-07-06T01:56:07;102525.34;;;17.96;60.97
48862;BME280;34681;49.188;-0.374;2022-07-06T01:58:32;102514.75;;;18.10;60.26
48862;BME280;34681;49.188;-0.374;2022-07-06T02:00:59;102510.19;;;18.18;59.90
48862;BME280;34681;49.188;-0.374;2022-07-06T02:03:25;102519.25;;;18.20;59.67
48862;BME280;34681;49.188;-0.374;2022-07-06T02:05:50;102521.84;;;18.22;59.50
48862;BME280;34681;49.188;-0.374;2022-07-06T02:08:15;102519.19;;;18.30;59.44
48862;BME280;34681;49.188;-0.374;2022-07-06T02:10:41;102527.78;;;18.27;59.13
48862;BME280;34681;49.188;-0.374;2022-07-06T02:13:06;102524.38;;;18.15;59.39
48862;BME280;34681;49.188;-0.374;2022-07-06T02:15:32;102517.44;;;18.29;59.02
48862;BME280;34681;49.188;-0.374;2022-07-06T02:17:57;102515.13;;;18.24;59.07
48862;BME280;34681;49.188;-0.374;2022-07-06T02:20:23;102515.84;;;18.27;58.97
48862;BME280;34681;49.188;-0.374;2022-07-06T02:22:48;102520.41;;;18.18;59.13
48862;BME280;34681;49.188;-0.374;2022-07-06T02:25:13;102520.00;;;18.13;59.33
48862;BME280;34681;49.188;-0.374;2022-07-06T02:27:39;102519.38;;;18.19;59.17
48862;BME280;34681;49.188;-0.374;2022-07-06T02:30:05;102517.03;;;18.24;59.11
48862;BME280;34681;49.188;-0.374;2022-07-06T02:32:31;102513.84;;;18.19;59.16
48862;BME280;34681;49.188;-0.374;2022-07-06T02:34:56;102513.56;;;18.22;59.10
48862;BME280;34681;49.188;-0.374;2022-07-06T02:37:22;102501.19;;;18.16;58.98
48862;BME280;34681;49.188;-0.374;2022-07-06T02:39:48;102502.03;;;18.17;59.14
48862;BME280;34681;49.188;-0.374;2022-07-06T02:42:13;102499.28;;;18.17;59.09
48862;BME280;34681;49.188;-0.374;2022-07-06T02:44:39;102501.19;;;18.16;59.33
48862;BME280;34681;49.188;-0.374;2022-07-06T02:47:04;102499.00;;;18.10;59.37
48862;BME280;34681;49.188;-0.374;2022-07-06T02:49:30;102508.06;;;18.12;59.14
48862;BME280;34681;49.188;-0.374;2022-07-06T02:51:55;102513.59;;;18.12;59.24
48862;BME280;34681;49.188;-0.374;2022-07-06T02:54:20;102506.28;;;18.11;59.23
48862;BME280;34681;49.188;-0.374;2022-07-06T02:56:46;102510.09;;;18.10;59.22
48862;BME280;34681;49.188;-0.374;2022-07-06T02:59:16;102511.44;;;18.06;59.18
48862;BME280;34681;49.188;-0.374;2022-07-06T03:01:41;102507.63;;;18.07;59.12
48862;BME280;34681;49.188;-0.374;2022-07-06T03:04:07;102506.19;;;18.03;59.32
48862;BME280;34681;49.188;-0.374;2022-07-06T03:06:32;102507.06;;;18.04;59.28
48862;BME280;34681;49.188;-0.374;2022-07-06T03:08:58;102512.59;;;18.04;59.44
48862;BME280;34681;49.188;-0.374;2022-07-06T03:11:23;102510.72;;;18.04;59.32
48862;BME280;34681;49.188;-0.374;2022-07-06T03:13:49;102511.72;;;18.03;59.32
48862;BME280;34681;49.188;-0.374;2022-07-06T03:16:14;102515.53;;;18.02;59.22
48862;BME280;34681;49.188;-0.374;2022-07-06T03:18:39;102517.59;;;18.00;59.40
48862;BME280;34681;49.188;-0.374;2022-07-06T03:21:05;102513.78;;;18.01;59.12
48862;BME280;34681;49.188;-0.374;2022-07-06T03:23:30;102517.59;;;18.00;59.40
48862;BME280;34681;49.188;-0.374;2022-07-06T03:25:56;102507.69;;;17.98;59.40
48862;BME280;34681;49.188;-0.374;2022-07-06T03:28:21;102512.03;;;18.00;59.59
48862;BME280;34681;49.188;-0.374;2022-07-06T03:30:47;102513.63;;;18.03;59.40
48862;BME280;34681;49.188;-0.374;2022-07-06T03:33:12;102519.47;;;18.00;59.47
48862;BME280;34681;49.188;-0.374;2022-07-06T03:35:37;102516.00;;;17.98;59.33
48862;BME280;34681;49.188;-0.374;2022-07-06T03:38:03;102520.78;;;17.95;59.57
48862;BME280;34681;49.188;-0.374;2022-07-06T03:40:28;102521.13;;;17.92;59.76
48862;BME280;34681;49.188;-0.374;2022-07-06T03:42:54;102519.69;;;17.88;59.70
48862;BME280;34681;49.188;-0.374;2022-07-06T03:45:19;102520.72;;;17.87;59.80
48862;BME280;34681;49.188;-0.374;2022-07-06T03:47:44;102534.09;;;17.92;59.67
48862;BME280;34681;49.188;-0.374;2022-07-06T03:50:10;102529.03;;;17.87;59.72
48862;BME280;34681;49.188;-0.374;2022-07-06T03:52:35;102526.84;;;17.81;59.87
48862;BME280;34681;49.188;-0.374;2022-07-06T03:55:11;102532.66;;;17.78;59.90
48862;BME280;34681;49.188;-0.374;2022-07-06T03:57:37;102530.78;;;17.69;60.25
48862;BME280;34681;49.188;-0.374;2022-07-06T04:00:04;102537.09;;;17.52;60.98
48862;BME280;34681;49.188;-0.374;2022-07-06T04:02:29;102533.25;;;17.62;60.49
48862;BME280;34681;49.188;-0.374;2022-07-06T04:04:54;102533.69;;;17.67;60.43
48862;BME280;34681;49.188;-0.374;2022-07-06T04:07:20;102540.09;;;17.68;60.45
48862;BME280;34681;49.188;-0.374;2022-07-06T04:09:45;102540.25;;;17.76;60.31
48862;BME280;34681;49.188;-0.374;2022-07-06T04:12:11;102535.31;;;17.70;60.22
48862;BME280;34681;49.188;-0.374;2022-07-06T04:14:36;102539.94;;;17.69;60.35
48862;BME280;34681;49.188;-0.374;2022-07-06T04:17:02;102526.88;;;17.72;60.38
48862;BME280;34681;49.188;-0.374;2022-07-06T04:19:47;102532.13;;;17.75;60.50
48862;BME280;34681;49.188;-0.374;2022-07-06T04:22:13;102531.03;;;17.85;60.85
48862;BME280;34681;49.188;-0.374;2022-07-06T04:24:38;102529.56;;;17.91;60.85
48862;BME280;34681;49.188;-0.374;2022-07-06T04:27:03;102537.84;;;18.01;60.99
48862;BME280;34681;49.188;-0.374;2022-07-06T04:29:29;102532.09;;;18.12;60.83
48862;BME280;34681;49.188;-0.374;2022-07-06T04:31:54;102536.38;;;18.34;61.03
48862;BME280;34681;49.188;-0.374;2022-07-06T04:34:20;102540.59;;;18.38;61.25
48862;BME280;34681;49.188;-0.374;2022-07-06T04:36:46;102543.25;;;18.30;61.96
48862;BME280;34681;49.188;-0.374;2022-07-06T04:39:11;102534.94;;;18.30;62.51
48862;BME280;34681;49.188;-0.374;2022-07-06T04:41:37;102541.75;;;18.08;63.25
48862;BME280;34681;49.188;-0.374;2022-07-06T04:44:03;102538.66;;;18.20;62.84
48862;BME280;34681;49.188;-0.374;2022-07-06T04:46:28;102545.16;;;18.29;62.78
48862;BME280;34681;49.188;-0.374;2022-07-06T04:48:54;102550.66;;;18.39;62.69
48862;BME280;34681;49.188;-0.374;2022-07-06T04:51:19;102550.59;;;18.48;62.41
48862;BME280;34681;49.188;-0.374;2022-07-06T04:53:45;102554.84;;;18.43;62.75
48862;BME280;34681;49.188;-0.374;2022-07-06T04:56:11;102552.78;;;18.45;62.76
48862;BME280;34681;49.188;-0.374;2022-07-06T04:58:36;102553.78;;;18.53;62.34
48862;BME280;34681;49.188;-0.374;2022-07-06T05:01:02;102548.63;;;18.59;62.13
48862;BME280;34681;49.188;-0.374;2022-07-06T05:03:27;102564.44;;;18.76;61.52
48862;BME280;34681;49.188;-0.374;2022-07-06T05:05:52;102561.75;;;18.84;61.44
48862;BME280;34681;49.188;-0.374;2022-07-06T05:08:18;102557.22;;;19.19;60.95
48862;BME280;34681;49.188;-0.374;2022-07-06T05:10:43;102560.94;;;19.45;60.55
48862;BME280;34681;49.188;-0.374;2022-07-06T05:13:09;102559.91;;;19.90;59.93
48862;BME280;34681;49.188;-0.374;2022-07-06T05:15:34;102561.00;;;20.39;59.27
48862;BME280;34681;49.188;-0.374;2022-07-06T05:18:00;102560.69;;;21.01;58.44
48862;BME280;34681;49.188;-0.374;2022-07-06T05:20:25;102567.97;;;22.08;56.93
48862;BME280;34681;49.188;-0.374;2022-07-06T05:22:51;102562.41;;;23.32;53.64
48862;BME280;34681;49.188;-0.374;2022-07-06T05:25:16;102557.03;;;24.50;50.79
48862;BME280;34681;49.188;-0.374;2022-07-06T05:27:41;102555.34;;;25.49;48.88
48862;BME280;34681;49.188;-0.374;2022-07-06T05:30:07;102555.44;;;26.19;47.02
48862;BME280;34681;49.188;-0.374;2022-07-06T05:32:33;102559.81;;;26.69;45.17
48862;BME280;34681;49.188;-0.374;2022-07-06T05:34:58;102560.31;;;26.93;45.05
48862;BME280;34681;49.188;-0.374;2022-07-06T05:37:24;102566.66;;;27.08;44.82
48862;BME280;34681;49.188;-0.374;2022-07-06T05:39:49;102569.47;;;27.21;44.70
48862;BME280;34681;49.188;-0.374;2022-07-06T05:42:35;102564.75;;;27.28;43.08
48862;BME280;34681;49.188;-0.374;2022-07-06T05:45:01;102568.44;;;27.35;43.50
48862;BME280;34681;49.188;-0.374;2022-07-06T05:47:28;102571.03;;;27.43;42.74
48862;BME280;34681;49.188;-0.374;2022-07-06T05:50:12;102577.97;;;27.41;42.49
48862;BME280;34681;49.188;-0.374;2022-07-06T05:52:55;102577.53;;;27.31;42.49
48862;BME280;34681;49.188;-0.374;2022-07-06T05:55:21;102583.31;;;27.16;42.58
48862;BME280;34681;49.188;-0.374;2022-07-06T05:57:46;102584.59;;;27.13;42.60
48862;BME280;34681;49.188;-0.374;2022-07-06T06:00:12;102582.19;;;27.04;42.61
48862;BME280;34681;49.188;-0.374;2022-07-06T06:02:41;102584.31;;;27.02;43.29
48862;BME280;34681;49.188;-0.374;2022-07-06T06:05:09;102580.41;;;26.96;43.40
48862;BME280;34681;49.188;-0.374;2022-07-06T06:07:36;102579.78;;;27.01;43.45
48862;BME280;34681;49.188;-0.374;2022-07-06T06:10:06;102584.16;;;27.03;43.62
48862;BME280;34681;49.188;-0.374;2022-07-06T06:12:32;102580.72;;;27.14;43.54
48862;BME280;34681;49.188;-0.374;2022-07-06T06:14:58;102583.56;;;27.28;43.44
48862;BME280;34681;49.188;-0.374;2022-07-06T06:17:23;102590.06;;;27.48;43.49
48862;BME280;34681;49.188;-0.374;2022-07-06T06:19:49;102591.19;;;27.67;43.05
48862;BME280;34681;49.188;-0.374;2022-07-06T06:22:14;102588.81;;;27.77;43.02
48862;BME280;34681;49.188;-0.374;2022-07-06T06:24:40;102597.00;;;27.72;42.90
48862;BME280;34681;49.188;-0.374;2022-07-06T06:27:05;102586.00;;;27.70;43.27
48862;BME280;34681;49.188;-0.374;2022-07-06T06:29:31;102594.19;;;27.72;43.56
48862;BME280;34681;49.188;-0.374;2022-07-06T06:31:56;102586.84;;;27.64;43.43
48862;BME280;34681;49.188;-0.374;2022-07-06T06:34:22;102591.63;;;27.77;43.66
48862;BME280;34681;49.188;-0.374;2022-07-06T06:36:47;102593.34;;;27.85;43.68
48862;BME280;34681;49.188;-0.374;2022-07-06T06:39:13;102588.78;;;28.04;43.30
48862;BME280;34681;49.188;-0.374;2022-07-06T06:41:38;102592.66;;;28.22;43.48
48862;BME280;34681;49.188;-0.374;2022-07-06T06:44:03;102584.81;;;28.44;43.05
48862;BME280;34681;49.188;-0.374;2022-07-06T06:46:29;102585.50;;;28.40;42.78
48862;BME280;34681;49.188;-0.374;2022-07-06T06:48:54;102583.78;;;28.32;42.56
48862;BME280;34681;49.188;-0.374;2022-07-06T06:51:20;102585.44;;;28.46;42.57
48862;BME280;34681;49.188;-0.374;2022-07-06T06:53:46;102588.75;;;28.23;43.01
48862;BME280;34681;49.188;-0.374;2022-07-06T06:56:12;102583.03;;;28.63;42.99
48862;BME280;34681;49.188;-0.374;2022-07-06T06:58:37;102590.78;;;28.74;41.84
48862;BME280;34681;49.188;-0.374;2022-07-06T07:01:03;102606.06;;;28.98;42.17
48862;BME280;34681;49.188;-0.374;2022-07-06T07:03:29;102610.28;;;28.69;41.47
48862;BME280;34681;49.188;-0.374;2022-07-06T07:05:55;102605.13;;;28.53;41.58
48862;BME280;34681;49.188;-0.374;2022-07-06T07:08:20;102603.88;;;28.49;41.92
48862;BME280;34681;49.188;-0.374;2022-07-06T07:10:45;102616.59;;;28.65;41.31
48862;BME280;34681;49.188;-0.374;2022-07-06T07:13:11;102616.41;;;28.46;41.42
48862;BME280;34681;49.188;-0.374;2022-07-06T07:15:36;102616.97;;;28.75;41.24
48862;BME280;34681;49.188;-0.374;2022-07-06T07:18:01;102619.31;;;28.91;39.28
48862;BME280;34681;49.188;-0.374;2022-07-06T07:20:27;102626.06;;;28.90;39.84
48862;BME280;34681;49.188;-0.374;2022-07-06T07:22:55;102618.97;;;28.61;40.10
48862;BME280;34681;49.188;-0.374;2022-07-06T07:25:20;102613.47;;;28.93;38.58
48862;BME280;34681;49.188;-0.374;2022-07-06T07:27:46;102610.22;;;28.89;38.41
48862;BME280;34681;49.188;-0.374;2022-07-06T07:30:12;102618.03;;;29.25;37.44
48862;BME280;34681;49.188;-0.374;2022-07-06T07:32:37;102618.94;;;29.19;37.15
48862;BME280;34681;49.188;-0.374;2022-07-06T07:35:05;102607.13;;;29.35;37.62
48862;BME280;34681;49.188;-0.374;2022-07-06T07:37:31;102605.53;;;29.78;36.99
48862;BME280;34681;49.188;-0.374;2022-07-06T07:39:56;102619.38;;;30.11;35.41
48862;BME280;34681;49.188;-0.374;2022-07-06T07:42:22;102604.22;;;29.80;36.06
48862;BME280;34681;49.188;-0.374;2022-07-06T07:44:47;102612.81;;;28.97;36.32
48862;BME280;34681;49.188;-0.374;2022-07-06T07:47:13;102611.72;;;28.92;36.42
48862;BME280;34681;49.188;-0.374;2022-07-06T07:49:38;102608.06;;;28.85;36.12
48862;BME280;34681;49.188;-0.374;2022-07-06T07:52:04;102614.78;;;28.90;35.83
48862;BME280;34681;49.188;-0.374;2022-07-06T07:54:29;102614.91;;;29.40;35.08
48862;BME280;34681;49.188;-0.374;2022-07-06T07:56:57;102621.31;;;29.85;34.01
48862;BME280;34681;49.188;-0.374;2022-07-06T07:59:23;102616.88;;;29.96;33.63
48862;BME280;34681;49.188;-0.374;2022-07-06T08:01:48;102620.28;;;30.05;32.84
48862;BME280;34681;49.188;-0.374;2022-07-06T08:04:14;102610.94;;;30.29;33.46
48862;BME280;34681;49.188;-0.374;2022-07-06T08:06:39;102613.16;;;31.30;32.51
48862;BME280;34681;49.188;-0.374;2022-07-06T08:09:05;102618.59;;;32.09;31.99
48862;BME280;34681;49.188;-0.374;2022-07-06T08:11:33;102613.59;;;31.57;31.68
48862;BME280;34681;49.188;-0.374;2022-07-06T08:13:58;102619.75;;;31.54;31.45
48862;BME280;34681;49.188;-0.374;2022-07-06T08:16:24;102615.97;;;31.72;31.12
48862;BME280;34681;49.188;-0.374;2022-07-06T08:18:50;102619.63;;;32.03;31.63
48862;BME280;34681;49.188;-0.374;2022-07-06T08:21:18;102629.19;;;33.12;29.93
48862;BME280;34681;49.188;-0.374;2022-07-06T08:23:43;102619.81;;;32.01;30.65
48862;BME280;34681;49.188;-0.374;2022-07-06T08:26:09;102615.91;;;32.14;30.48
48862;BME280;34681;49.188;-0.374;2022-07-06T08:28:35;102615.03;;;33.01;28.75
48862;BME280;34681;49.188;-0.374;2022-07-06T08:31:00;102622.84;;;33.96;27.74
48862;BME280;34681;49.188;-0.374;2022-07-06T08:33:26;102622.50;;;34.48;26.74
48862;BME280;34681;49.188;-0.374;2022-07-06T08:35:51;102622.41;;;35.03;26.06
48862;BME280;34681;49.188;-0.374;2022-07-06T08:38:20;102626.31;;;35.46;25.60
48862;BME280;34681;49.188;-0.374;2022-07-06T08:40:47;102623.31;;;36.27;24.56
48862;BME280;34681;49.188;-0.374;2022-07-06T08:43:14;102636.56;;;35.47;24.03
48862;BME280;34681;49.188;-0.374;2022-07-06T08:45:41;102622.00;;;35.70;25.00
48862;BME280;34681;49.188;-0.374;2022-07-06T08:48:09;102626.25;;;36.84;23.57
48862;BME280;34681;49.188;-0.374;2022-07-06T08:50:35;102619.75;;;36.05;24.15
48862;BME280;34681;49.188;-0.374;2022-07-06T08:53:01;102622.66;;;36.52;23.64
48862;BME280;34681;49.188;-0.374;2022-07-06T08:55:28;102622.66;;;37.20;22.56
48862;BME280;34681;49.188;-0.374;2022-07-06T08:57:55;102611.09;;;37.77;21.96
48862;BME280;34681;49.188;-0.374;2022-07-06T09:00:22;102612.47;;;37.64;22.33
48862;BME280;34681;49.188;-0.374;2022-07-06T09:02:48;102615.94;;;37.87;21.89
48862;BME280;34681;49.188;-0.374;2022-07-06T09:05:16;102608.78;;;38.00;21.30
48862;BME280;34681;49.188;-0.374;2022-07-06T09:07:42;102610.66;;;38.60;21.36
48862;BME280;34681;49.188;-0.374;2022-07-06T09:10:11;102605.06;;;37.89;21.55
48862;BME280;34681;49.188;-0.374;2022-07-06T09:12:36;102602.38;;;38.59;20.91
48862;BME280;34681;49.188;-0.374;2022-07-06T09:15:02;102595.91;;;38.07;20.77
48862;BME280;34681;49.188;-0.374;2022-07-06T09:17:28;102591.25;;;37.09;22.17
48862;BME280;34681;49.188;-0.374;2022-07-06T09:19:55;102594.50;;;37.79;21.18
48862;BME280;34681;49.188;-0.374;2022-07-06T09:22:28;102597.59;;;38.34;21.24
48862;BME280;34681;49.188;-0.374;2022-07-06T09:25:09;102606.88;;;40.08;20.02
48862;BME280;34681;49.188;-0.374;2022-07-06T09:27:53;102588.75;;;40.12;18.99
48862;BME280;34681;49.188;-0.374;2022-07-06T09:30:22;102598.13;;;40.23;18.37
48862;BME280;34681;49.188;-0.374;2022-07-06T09:32:53;102602.72;;;39.56;19.02
48862;BME280;34681;49.188;-0.374;2022-07-06T09:35:25;102593.69;;;41.03;18.38
48862;BME280;34681;49.188;-0.374;2022-07-06T09:40:33;102597.53;;;41.55;16.89
48862;BME280;34681;49.188;-0.374;2022-07-06T09:45:35;102584.28;;;36.33;20.63
48862;BME280;34681;49.188;-0.374;2022-07-06T09:48:06;102588.69;;;34.29;22.41
48862;BME280;34681;49.188;-0.374;2022-07-06T09:50:38;102575.13;;;33.81;23.90
48862;BME280;34681;49.188;-0.374;2022-07-06T09:53:05;102585.47;;;33.70;24.01
48862;BME280;34681;49.188;-0.374;2022-07-06T09:55:31;102585.41;;;32.80;24.96
48862;BME280;34681;49.188;-0.374;2022-07-06T09:57:56;102592.34;;;31.67;26.05
48862;BME280;34681;49.188;-0.374;2022-07-06T10:00:22;102608.75;;;30.86;27.46
48862;BME280;34681;49.188;-0.374;2022-07-06T10:02:48;102599.59;;;29.61;28.72
48862;BME280;34681;49.188;-0.374;2022-07-06T10:05:16;102597.53;;;29.12;30.07
48862;BME280;34681;49.188;-0.374;2022-07-06T10:07:45;102600.16;;;28.55;30.82
48862;BME280;34681;49.188;-0.374;2022-07-06T10:10:11;102611.31;;;27.84;32.35
48862;BME280;34681;49.188;-0.374;2022-07-06T10:12:37;102599.56;;;27.34;33.19
48862;BME280;34681;49.188;-0.374;2022-07-06T10:15:04;102586.22;;;26.88;33.71
48862;BME280;34681;49.188;-0.374;2022-07-06T10:17:30;102596.53;;;26.68;34.79
48862;BME280;34681;49.188;-0.374;2022-07-06T10:19:56;102589.16;;;26.25;34.57
48862;BME280;34681;49.188;-0.374;2022-07-06T10:22:22;102587.97;;;26.07;36.12
48862;BME280;34681;49.188;-0.374;2022-07-06T10:24:48;102590.97;;;25.77;36.38
48862;BME280;34681;49.188;-0.374;2022-07-06T10:27:14;102581.78;;;25.68;36.85
48862;BME280;34681;49.188;-0.374;2022-07-06T10:29:40;102576.53;;;25.80;37.33
48862;BME280;34681;49.188;-0.374;2022-07-06T10:32:07;102589.34;;;25.68;37.42
48862;BME280;34681;49.188;-0.374;2022-07-06T10:34:34;102583.69;;;25.18;38.62
48862;BME280;34681;49.188;-0.374;2022-07-06T10:37:02;102583.53;;;25.05;38.61
48862;BME280;34681;49.188;-0.374;2022-07-06T10:39:36;102582.50;;;25.28;38.81
48862;BME280;34681;49.188;-0.374;2022-07-06T10:42:39;102589.97;;;25.20;39.18
48862;BME280;34681;49.188;-0.374;2022-07-06T10:45:06;102591.63;;;25.15;39.16
48862;BME280;34681;49.188;-0.374;2022-07-06T10:47:31;102595.69;;;24.98;39.70
48862;BME280;34681;49.188;-0.374;2022-07-06T10:50:01;102599.19;;;25.00;40.01
48862;BME280;34681;49.188;-0.374;2022-07-06T10:52:53;102602.66;;;25.16;39.54
48862;BME280;34681;49.188;-0.374;2022-07-06T10:55:33;102596.97;;;25.31;39.84
48862;BME280;34681;49.188;-0.374;2022-07-06T10:58:00;102595.91;;;25.11;39.70
48862;BME280;34681;49.188;-0.374;2022-07-06T11:00:26;102593.19;;;24.67;40.46
48862;BME280;34681;49.188;-0.374;2022-07-06T11:06:00;102599.06;;;24.72;41.09
48862;BME280;34681;49.188;-0.374;2022-07-06T11:08:48;102618.59;;;25.01;40.59
48862;BME280;34681;49.188;-0.374;2022-07-06T11:14:05;102608.47;;;25.00;40.32
48862;BME280;34681;49.188;-0.374;2022-07-06T11:19:13;102605.66;;;25.00;40.92
48862;BME280;34681;49.188;-0.374;2022-07-06T11:24:11;102615.06;;;24.78;40.38
48862;BME280;34681;49.188;-0.374;2022-07-06T11:26:37;102612.16;;;24.86;41.19
48862;BME280;34681;49.188;-0.374;2022-07-06T11:29:04;102613.34;;;24.62;41.50
48862;BME280;34681;49.188;-0.374;2022-07-06T11:31:36;102608.59;;;24.92;40.65
48862;BME280;34681;49.188;-0.374;2022-07-06T11:34:03;102608.84;;;24.97;40.67
48862;BME280;34681;49.188;-0.374;2022-07-06T11:36:29;102623.50;;;25.14;40.41
48862;BME280;34681;49.188;-0.374;2022-07-06T11:38:55;102621.44;;;24.72;40.94
48862;BME280;34681;49.188;-0.374;2022-07-06T11:41:20;102616.25;;;24.69;41.54
48862;BME280;34681;49.188;-0.374;2022-07-06T11:43:46;102605.50;;;24.72;41.06
48862;BME280;34681;49.188;-0.374;2022-07-06T11:46:29;102602.50;;;25.03;40.75
48862;BME280;34681;49.188;-0.374;2022-07-06T11:49:04;102601.72;;;24.94;40.61
48862;BME280;34681;49.188;-0.374;2022-07-06T11:51:32;102600.63;;;24.74;41.91
48862;BME280;34681;49.188;-0.374;2022-07-06T11:54:00;102593.63;;;24.85;40.74
48862;BME280;34681;49.188;-0.374;2022-07-06T11:56:27;102588.13;;;24.91;40.94
48862;BME280;34681;49.188;-0.374;2022-07-06T11:58:55;102588.28;;;25.05;40.41
48862;BME280;34681;49.188;-0.374;2022-07-06T12:01:22;102598.91;;;24.94;40.97
48862;BME280;34681;49.188;-0.374;2022-07-06T12:03:48;102598.97;;;25.16;40.21
48862;BME280;34681;49.188;-0.374;2022-07-06T12:06:17;102592.91;;;25.34;40.20
48862;BME280;34681;49.188;-0.374;2022-07-06T12:09:03;102592.91;;;25.34;39.13
48862;BME280;34681;49.188;-0.374;2022-07-06T12:11:30;102597.03;;;25.38;39.83
48862;BME280;34681;49.188;-0.374;2022-07-06T12:14:02;102599.31;;;25.49;39.96
48862;BME280;34681;49.188;-0.374;2022-07-06T12:16:32;102605.13;;;25.26;40.29
48862;BME280;34681;49.188;-0.374;2022-07-06T12:18:59;102610.56;;;25.13;40.31
48862;BME280;34681;49.188;-0.374;2022-07-06T12:21:25;102609.91;;;24.96;40.38
48862;BME280;34681;49.188;-0.374;2022-07-06T12:23:52;102605.19;;;24.82;40.83
48862;BME280;34681;49.188;-0.374;2022-07-06T12:26:20;102593.94;;;24.75;41.30
48862;BME280;34681;49.188;-0.374;2022-07-06T12:28:59;102591.47;;;24.51;42.13
48862;BME280;34681;49.188;-0.374;2022-07-06T12:31:32;102585.19;;;24.49;41.91
48862;BME280;34681;49.188;-0.374;2022-07-06T12:33:58;102585.94;;;24.57;41.98
48862;BME280;34681;49.188;-0.374;2022-07-06T12:36:23;102571.66;;;24.67;41.80
48862;BME280;34681;49.188;-0.374;2022-07-06T12:38:49;102580.34;;;24.57;42.02
48862;BME280;34681;49.188;-0.374;2022-07-06T12:41:32;102582.88;;;24.88;42.15
48862;BME280;34681;49.188;-0.374;2022-07-06T12:44:06;102590.72;;;24.93;41.66
48862;BME280;34681;49.188;-0.374;2022-07-06T12:46:39;102585.16;;;24.63;41.93
48862;BME280;34681;49.188;-0.374;2022-07-06T12:49:12;102585.06;;;24.57;42.24
48862;BME280;34681;49.188;-0.374;2022-07-06T12:51:59;102587.81;;;24.50;43.08
48862;BME280;34681;49.188;-0.374;2022-07-06T12:54:34;102581.91;;;24.60;42.75
48862;BME280;34681;49.188;-0.374;2022-07-06T12:59:38;102574.75;;;24.57;42.49